sensor_id;sensor_type;location;lat;lon;timestamp;P1;durP1;ratioP1;P2;durP2;ratioP2
572;SDS011;271;51.114;13.780;2023-02-28T00:00:31;18.77;;;4.80;;
572;SDS011;271;51.114;13.780;2023-02-28T00:03:21;20.45;;;4.65;;
572;SDS011;271;51.114;13.780;2023-02-28T00:06:08;20.10;;;4.75;;
572;SDS011;271;51.114;13.780;2023-02-28T00:08:56;19.10;;;4.70;;
572;SDS011;271;51.114;13.780;2023-02-28T00:11:44;22.05;;;5.07;;
572;SDS011;271;51.114;13.780;2023-02-28T00:14:31;19.95;;;5.30;;
572;SDS011;271;51.114;13.780;2023-02-28T00:17:19;19.35;;;4.50;;
572;SDS011;271;51.114;13.780;2023-02-28T00:20:10;20.75;;;5.22;;
572;SDS011;271;51.114;13.780;2023-02-28T00:22:58;21.30;;;5.20;;
572;SDS011;271;51.114;13.780;2023-02-28T00:25:46;20.20;;;4.10;;
572;SDS011;271;51.114;13.780;2023-02-28T00:28:33;19.25;;;5.10;;
572;SDS011;271;51.114;13.780;2023-02-28T00:31:21;20.70;;;5.13;;
572;SDS011;271;51.114;13.780;2023-02-28T00:34:09;20.15;;;5.78;;
572;SDS011;271;51.114;13.780;2023-02-28T00:36:58;19.58;;;4.80;;
572;SDS011;271;51.114;13.780;2023-02-28T00:39:46;19.50;;;4.65;;
572;SDS011;271;51.114;13.780;2023-02-28T00:42:34;20.63;;;4.70;;
572;SDS011;271;51.114;13.780;2023-02-28T00:45:22;18.52;;;4.18;;
572;SDS011;271;51.114;13.780;2023-02-28T00:48:09;20.42;;;5.03;;
572;SDS011;271;51.114;13.780;2023-02-28T00:50:57;19.77;;;4.20;;
572;SDS011;271;51.114;13.780;2023-02-28T00:53:46;21.15;;;5.03;;
572;SDS011;271;51.114;13.780;2023-02-28T00:56:34;19.02;;;5.03;;
572;SDS011;271;51.114;13.780;2023-02-28T00:59:21;19.00;;;4.78;;
572;SDS011;271;51.114;13.780;2023-02-28T01:02:09;19.45;;;4.80;;
572;SDS011;271;51.114;13.780;2023-02-28T01:04:57;19.63;;;4.85;;
572;SDS011;271;51.114;13.780;2023-02-28T01:07:44;19.83;;;4.75;;
572;SDS011;271;51.114;13.780;2023-02-28T01:10:33;19.70;;;4.75;;
572;SDS011;271;51.114;13.780;2023-02-28T01:13:22;22.35;;;5.05;;
572;SDS011;271;51.114;13.780;2023-02-28T01:16:11;19.92;;;5.18;;
572;SDS011;271;51.114;13.780;2023-02-28T01:18:59;20.10;;;4.55;;
572;SDS011;271;51.114;13.780;2023-02-28T01:21:47;20.67;;;4.78;;
572;SDS011;271;51.114;13.780;2023-02-28T01:24:34;19.65;;;5.15;;
572;SDS011;271;51.114;13.780;2023-02-28T01:27:23;19.60;;;4.82;;
572;SDS011;271;51.114;13.780;2023-02-28T01:30:12;21.42;;;5.28;;
572;SDS011;271;51.114;13.780;2023-02-28T01:33:00;20.40;;;5.63;;
572;SDS011;271;51.114;13.780;2023-02-28T01:35:48;19.90;;;5.07;;
572;SDS011;271;51.114;13.780;2023-02-28T01:38:35;22.27;;;5.57;;
572;SDS011;271;51.114;13.780;2023-02-28T01:41:24;20.90;;;4.63;;
572;SDS011;271;51.114;13.780;2023-02-28T01:47:40;19.08;;;4.50;;
572;SDS011;271;51.114;13.780;2023-02-28T01:50:29;19.38;;;5.53;;
572;SDS011;271;51.114;13.780;2023-02-28T01:53:21;20.88;;;5.45;;
572;SDS011;271;51.114;13.780;2023-02-28T01:56:13;20.70;;;4.93;;
572;SDS011;271;51.114;13.780;2023-02-28T01:59:06;19.20;;;4.93;;
572;SDS011;271;51.114;13.780;2023-02-28T02:01:53;18.55;;;4.35;;
572;SDS011;271;51.114;13.780;2023-02-28T02:04:44;21.30;;;5.00;;
572;SDS011;271;51.114;13.780;2023-02-28T02:07:41;18.33;;;4.30;;
572;SDS011;271;51.114;13.780;2023-02-28T02:10:32;18.95;;;4.68;;
572;SDS011;271;51.114;13.780;2023-02-28T02:13:29;20.63;;;4.57;;
572;SDS011;271;51.114;13.780;2023-02-28T02:16:34;19.58;;;5.38;;
572;SDS011;271;51.114;13.780;2023-02-28T02:26:21;20.90;;;5.32;;
572;SDS011;271;51.114;13.780;2023-02-28T02:32:57;20.10;;;5.28;;
572;SDS011;271;51.114;13.780;2023-02-28T02:35:59;19.10;;;4.57;;
572;SDS011;271;51.114;13.780;2023-02-28T02:38:52;20.70;;;4.40;;
572;SDS011;271;51.114;13.780;2023-02-28T02:41:45;20.15;;;5.20;;
572;SDS011;271;51.114;13.780;2023-02-28T02:44:36;20.60;;;5.07;;
572;SDS011;271;51.114;13.780;2023-02-28T02:47:30;19.38;;;4.40;;
572;SDS011;271;51.114;13.780;2023-02-28T02:50:22;18.23;;;3.95;;
572;SDS011;271;51.114;13.780;2023-02-28T02:53:15;19.30;;;4.55;;
572;SDS011;271;51.114;13.780;2023-02-28T02:56:06;21.30;;;5.35;;
572;SDS011;271;51.114;13.780;2023-02-28T02:58:56;19.02;;;4.00;;
572;SDS011;271;51.114;13.780;2023-02-28T03:01:47;18.33;;;4.20;;
572;SDS011;271;51.114;13.780;2023-02-28T03:04:39;22.77;;;4.70;;
572;SDS011;271;51.114;13.780;2023-02-28T03:07:30;19.63;;;4.55;;
572;SDS011;271;51.114;13.780;2023-02-28T03:10:30;20.63;;;4.40;;
572;SDS011;271;51.114;13.780;2023-02-28T03:16:31;18.63;;;4.72;;
572;SDS011;271;51.114;13.780;2023-02-28T03:19:31;19.27;;;4.85;;
572;SDS011;271;51.114;13.780;2023-02-28T03:22:34;19.10;;;4.45;;
572;SDS011;271;51.114;13.780;2023-02-28T03:25:37;19.15;;;4.40;;
572;SDS011;271;51.114;13.780;2023-02-28T03:28:35;21.10;;;4.38;;
572;SDS011;271;51.114;13.780;2023-02-28T03:31:32;20.45;;;4.75;;
572;SDS011;271;51.114;13.780;2023-02-28T03:34:25;20.50;;;4.38;;
572;SDS011;271;51.114;13.780;2023-02-28T03:37:17;19.60;;;5.20;;
572;SDS011;271;51.114;13.780;2023-02-28T03:40:10;21.10;;;5.30;;
572;SDS011;271;51.114;13.780;2023-02-28T03:43:03;21.52;;;6.22;;
572;SDS011;271;51.114;13.780;2023-02-28T03:45:56;21.17;;;5.15;;
572;SDS011;271;51.114;13.780;2023-02-28T03:48:49;22.27;;;6.47;;
572;SDS011;271;51.114;13.780;2023-02-28T03:51:41;20.70;;;5.55;;
572;SDS011;271;51.114;13.780;2023-02-28T03:54:32;21.05;;;5.88;;
572;SDS011;271;51.114;13.780;2023-02-28T03:57:25;21.20;;;6.45;;
572;SDS011;271;51.114;13.780;2023-02-28T04:00:21;21.00;;;5.72;;
572;SDS011;271;51.114;13.780;2023-02-28T04:03:15;20.73;;;5.57;;
572;SDS011;271;51.114;13.780;2023-02-28T04:06:03;19.42;;;5.00;;
572;SDS011;271;51.114;13.780;2023-02-28T04:08:52;19.88;;;6.13;;
572;SDS011;271;51.114;13.780;2023-02-28T04:11:41;19.75;;;5.95;;
572;SDS011;271;51.114;13.780;2023-02-28T04:14:30;22.92;;;6.45;;
572;SDS011;271;51.114;13.780;2023-02-28T04:17:20;21.95;;;6.22;;
572;SDS011;271;51.114;13.780;2023-02-28T04:20:08;19.88;;;6.03;;
572;SDS011;271;51.114;13.780;2023-02-28T04:22:57;21.55;;;7.05;;
572;SDS011;271;51.114;13.780;2023-02-28T04:25:45;23.00;;;6.45;;
572;SDS011;271;51.114;13.780;2023-02-28T04:28:33;23.25;;;6.18;;
572;SDS011;271;51.114;13.780;2023-02-28T04:31:20;20.13;;;5.55;;
572;SDS011;271;51.114;13.780;2023-02-28T04:34:09;23.38;;;6.22;;
572;SDS011;271;51.114;13.780;2023-02-28T04:36:57;21.17;;;5.55;;
572;SDS011;271;51.114;13.780;2023-02-28T04:39:46;20.63;;;5.95;;
572;SDS011;271;51.114;13.780;2023-02-28T04:42:33;21.05;;;5.90;;
572;SDS011;271;51.114;13.780;2023-02-28T04:45:22;20.58;;;5.38;;
572;SDS011;271;51.114;13.780;2023-02-28T04:48:09;20.60;;;6.20;;
572;SDS011;271;51.114;13.780;2023-02-28T04:51:00;22.58;;;6.05;;
572;SDS011;271;51.114;13.780;2023-02-28T04:53:48;22.55;;;7.20;;
572;SDS011;271;51.114;13.780;2023-02-28T04:56:36;21.05;;;5.85;;
572;SDS011;271;51.114;13.780;2023-02-28T04:59:24;22.45;;;6.30;;
572;SDS011;271;51.114;13.780;2023-02-28T05:02:11;21.52;;;6.25;;
572;SDS011;271;51.114;13.780;2023-02-28T05:04:59;22.10;;;5.97;;
572;SDS011;271;51.114;13.780;2023-02-28T05:07:48;22.35;;;5.80;;
572;SDS011;271;51.114;13.780;2023-02-28T05:10:36;19.65;;;5.80;;
572;SDS011;271;51.114;13.780;2023-02-28T05:13:24;21.33;;;6.10;;
572;SDS011;271;51.114;13.780;2023-02-28T05:16:11;24.17;;;6.13;;
572;SDS011;271;51.114;13.780;2023-02-28T05:18:59;21.48;;;6.68;;
572;SDS011;271;51.114;13.780;2023-02-28T05:21:50;21.85;;;6.60;;
572;SDS011;271;51.114;13.780;2023-02-28T05:24:41;28.10;;;9.10;;
572;SDS011;271;51.114;13.780;2023-02-28T05:27:29;29.95;;;11.85;;
572;SDS011;271;51.114;13.780;2023-02-28T05:30:17;27.23;;;12.82;;
572;SDS011;271;51.114;13.780;2023-02-28T05:33:04;31.00;;;14.35;;
572;SDS011;271;51.114;13.780;2023-02-28T05:35:52;37.47;;;18.92;;
572;SDS011;271;51.114;13.780;2023-02-28T05:38:40;29.45;;;14.65;;
572;SDS011;271;51.114;13.780;2023-02-28T05:41:29;36.08;;;18.73;;
572;SDS011;271;51.114;13.780;2023-02-28T05:44:16;36.85;;;18.45;;
572;SDS011;271;51.114;13.780;2023-02-28T05:47:04;31.30;;;13.27;;
572;SDS011;271;51.114;13.780;2023-02-28T05:49:52;26.92;;;10.95;;
572;SDS011;271;51.114;13.780;2023-02-28T05:52:40;25.35;;;9.07;;
572;SDS011;271;51.114;13.780;2023-02-28T05:55:27;23.60;;;7.88;;
572;SDS011;271;51.114;13.780;2023-02-28T05:58:16;21.95;;;6.75;;
572;SDS011;271;51.114;13.780;2023-02-28T06:01:19;25.08;;;7.20;;
572;SDS011;271;51.114;13.780;2023-02-28T06:04:09;24.70;;;7.60;;
572;SDS011;271;51.114;13.780;2023-02-28T06:06:59;23.35;;;7.90;;
572;SDS011;271;51.114;13.780;2023-02-28T06:09:47;24.33;;;8.13;;
572;SDS011;271;51.114;13.780;2023-02-28T06:12:35;25.23;;;9.32;;
572;SDS011;271;51.114;13.780;2023-02-28T06:15:24;24.20;;;8.05;;
572;SDS011;271;51.114;13.780;2023-02-28T06:18:12;23.33;;;8.20;;
572;SDS011;271;51.114;13.780;2023-02-28T06:21:00;25.05;;;8.27;;
572;SDS011;271;51.114;13.780;2023-02-28T06:23:48;24.20;;;8.20;;
572;SDS011;271;51.114;13.780;2023-02-28T06:26:36;23.08;;;7.25;;
572;SDS011;271;51.114;13.780;2023-02-28T06:29:24;23.33;;;8.18;;
572;SDS011;271;51.114;13.780;2023-02-28T06:32:13;22.17;;;6.90;;
572;SDS011;271;51.114;13.780;2023-02-28T06:35:01;23.95;;;7.20;;
572;SDS011;271;51.114;13.780;2023-02-28T06:37:49;21.85;;;6.78;;
572;SDS011;271;51.114;13.780;2023-02-28T06:40:37;20.15;;;5.97;;
572;SDS011;271;51.114;13.780;2023-02-28T06:43:25;20.63;;;6.20;;
572;SDS011;271;51.114;13.780;2023-02-28T06:46:14;22.65;;;7.45;;
572;SDS011;271;51.114;13.780;2023-02-28T06:49:03;22.50;;;7.47;;
572;SDS011;271;51.114;13.780;2023-02-28T06:51:54;24.05;;;7.50;;
572;SDS011;271;51.114;13.780;2023-02-28T06:54:42;23.88;;;8.30;;
572;SDS011;271;51.114;13.780;2023-02-28T06:57:30;25.45;;;8.68;;
572;SDS011;271;51.114;13.780;2023-02-28T07:00:19;27.50;;;11.20;;
572;SDS011;271;51.114;13.780;2023-02-28T07:03:07;26.95;;;10.20;;
572;SDS011;271;51.114;13.780;2023-02-28T07:05:56;24.83;;;10.35;;
572;SDS011;271;51.114;13.780;2023-02-28T07:08:44;27.52;;;10.52;;
572;SDS011;271;51.114;13.780;2023-02-28T07:11:32;29.33;;;12.82;;
572;SDS011;271;51.114;13.780;2023-02-28T07:14:20;25.02;;;11.45;;
572;SDS011;271;51.114;13.780;2023-02-28T07:17:08;29.67;;;11.80;;
572;SDS011;271;51.114;13.780;2023-02-28T07:19:57;30.83;;;11.55;;
572;SDS011;271;51.114;13.780;2023-02-28T07:22:46;25.60;;;9.75;;
572;SDS011;271;51.114;13.780;2023-02-28T07:25:40;27.00;;;10.07;;
572;SDS011;271;51.114;13.780;2023-02-28T07:28:28;27.38;;;11.88;;
572;SDS011;271;51.114;13.780;2023-02-28T07:31:16;23.73;;;9.40;;
572;SDS011;271;51.114;13.780;2023-02-28T07:34:04;26.50;;;9.82;;
572;SDS011;271;51.114;13.780;2023-02-28T07:36:52;25.55;;;10.02;;
572;SDS011;271;51.114;13.780;2023-02-28T07:39:42;25.20;;;10.75;;
572;SDS011;271;51.114;13.780;2023-02-28T07:42:29;24.55;;;9.13;;
572;SDS011;271;51.114;13.780;2023-02-28T07:45:17;22.58;;;8.93;;
572;SDS011;271;51.114;13.780;2023-02-28T07:48:05;25.15;;;9.27;;
572;SDS011;271;51.114;13.780;2023-02-28T07:50:55;22.88;;;8.48;;
572;SDS011;271;51.114;13.780;2023-02-28T07:53:43;24.30;;;8.30;;
572;SDS011;271;51.114;13.780;2023-02-28T07:56:33;22.92;;;8.68;;
572;SDS011;271;51.114;13.780;2023-02-28T07:59:21;23.60;;;9.18;;
572;SDS011;271;51.114;13.780;2023-02-28T08:02:09;23.42;;;8.43;;
572;SDS011;271;51.114;13.780;2023-02-28T08:05:00;24.98;;;9.63;;
572;SDS011;271;51.114;13.780;2023-02-28T08:07:48;25.23;;;8.02;;
572;SDS011;271;51.114;13.780;2023-02-28T08:10:36;24.63;;;8.60;;
572;SDS011;271;51.114;13.780;2023-02-28T08:13:26;24.17;;;8.40;;
572;SDS011;271;51.114;13.780;2023-02-28T08:16:14;24.92;;;7.50;;
572;SDS011;271;51.114;13.780;2023-02-28T08:19:06;21.60;;;7.95;;
572;SDS011;271;51.114;13.780;2023-02-28T08:21:54;22.60;;;7.45;;
572;SDS011;271;51.114;13.780;2023-02-28T08:24:42;23.45;;;7.30;;
572;SDS011;271;51.114;13.780;2023-02-28T08:27:30;22.83;;;6.75;;
572;SDS011;271;51.114;13.780;2023-02-28T08:30:19;23.92;;;7.18;;
572;SDS011;271;51.114;13.780;2023-02-28T08:33:07;22.48;;;7.40;;
572;SDS011;271;51.114;13.780;2023-02-28T08:35:55;24.10;;;7.53;;
572;SDS011;271;51.114;13.780;2023-02-28T08:38:43;21.92;;;7.28;;
572;SDS011;271;51.114;13.780;2023-02-28T08:41:31;21.40;;;6.22;;
572;SDS011;271;51.114;13.780;2023-02-28T08:44:19;23.42;;;6.28;;
572;SDS011;271;51.114;13.780;2023-02-28T08:47:08;22.48;;;6.20;;
572;SDS011;271;51.114;13.780;2023-02-28T08:49:56;24.45;;;6.57;;
572;SDS011;271;51.114;13.780;2023-02-28T08:52:44;21.48;;;6.93;;
572;SDS011;271;51.114;13.780;2023-02-28T08:55:32;21.83;;;6.40;;
572;SDS011;271;51.114;13.780;2023-02-28T08:58:19;23.33;;;6.65;;
572;SDS011;271;51.114;13.780;2023-02-28T09:01:08;23.58;;;6.47;;
572;SDS011;271;51.114;13.780;2023-02-28T09:03:58;23.83;;;6.90;;
572;SDS011;271;51.114;13.780;2023-02-28T09:06:47;22.45;;;6.30;;
572;SDS011;271;51.114;13.780;2023-02-28T09:09:35;24.85;;;7.05;;
572;SDS011;271;51.114;13.780;2023-02-28T09:12:23;23.10;;;7.15;;
572;SDS011;271;51.114;13.780;2023-02-28T09:15:12;22.10;;;6.85;;
572;SDS011;271;51.114;13.780;2023-02-28T09:17:59;21.17;;;6.57;;
572;SDS011;271;51.114;13.780;2023-02-28T09:20:48;24.63;;;7.10;;
572;SDS011;271;51.114;13.780;2023-02-28T09:23:36;21.45;;;6.72;;
572;SDS011;271;51.114;13.780;2023-02-28T09:26:25;21.02;;;6.03;;
572;SDS011;271;51.114;13.780;2023-02-28T09:29:14;21.77;;;7.47;;
572;SDS011;271;51.114;13.780;2023-02-28T09:32:03;20.75;;;6.68;;
572;SDS011;271;51.114;13.780;2023-02-28T09:34:51;20.80;;;6.63;;
572;SDS011;271;51.114;13.780;2023-02-28T09:37:40;21.63;;;6.28;;
572;SDS011;271;51.114;13.780;2023-02-28T09:40:28;21.77;;;7.18;;
572;SDS011;271;51.114;13.780;2023-02-28T09:43:17;21.20;;;6.60;;
572;SDS011;271;51.114;13.780;2023-02-28T09:46:08;23.00;;;7.30;;
572;SDS011;271;51.114;13.780;2023-02-28T09:49:05;24.73;;;6.88;;
572;SDS011;271;51.114;13.780;2023-02-28T09:51:58;20.70;;;7.15;;
572;SDS011;271;51.114;13.780;2023-02-28T09:54:50;20.52;;;6.10;;
572;SDS011;271;51.114;13.780;2023-02-28T09:57:38;20.70;;;6.50;;
572;SDS011;271;51.114;13.780;2023-02-28T10:00:29;22.17;;;6.53;;
572;SDS011;271;51.114;13.780;2023-02-28T10:03:24;22.40;;;6.25;;
572;SDS011;271;51.114;13.780;2023-02-28T10:06:17;20.15;;;6.22;;
572;SDS011;271;51.114;13.780;2023-02-28T10:09:08;19.73;;;6.85;;
572;SDS011;271;51.114;13.780;2023-02-28T10:12:03;21.10;;;6.63;;
572;SDS011;271;51.114;13.780;2023-02-28T10:14:52;21.27;;;6.55;;
572;SDS011;271;51.114;13.780;2023-02-28T10:17:42;20.92;;;6.93;;
572;SDS011;271;51.114;13.780;2023-02-28T10:20:35;21.25;;;6.43;;
572;SDS011;271;51.114;13.780;2023-02-28T10:23:27;21.30;;;6.22;;
572;SDS011;271;51.114;13.780;2023-02-28T10:26:18;20.20;;;6.38;;
572;SDS011;271;51.114;13.780;2023-02-28T10:29:08;22.70;;;6.82;;
572;SDS011;271;51.114;13.780;2023-02-28T10:31:57;19.45;;;6.53;;
572;SDS011;271;51.114;13.780;2023-02-28T10:34:50;20.45;;;7.40;;
572;SDS011;271;51.114;13.780;2023-02-28T10:37:39;20.95;;;6.25;;
572;SDS011;271;51.114;13.780;2023-02-28T10:40:30;20.10;;;7.30;;
572;SDS011;271;51.114;13.780;2023-02-28T10:43:21;20.92;;;7.28;;
572;SDS011;271;51.114;13.780;2023-02-28T10:46:13;22.25;;;8.27;;
572;SDS011;271;51.114;13.780;2023-02-28T10:49:14;22.25;;;7.57;;
572;SDS011;271;51.114;13.780;2023-02-28T10:52:07;21.42;;;7.63;;
572;SDS011;271;51.114;13.780;2023-02-28T10:54:57;24.25;;;7.53;;
572;SDS011;271;51.114;13.780;2023-02-28T10:58:02;21.75;;;6.95;;
572;SDS011;271;51.114;13.780;2023-02-28T11:00:54;21.85;;;7.95;;
572;SDS011;271;51.114;13.780;2023-02-28T11:03:43;22.88;;;8.00;;
572;SDS011;271;51.114;13.780;2023-02-28T11:06:32;22.73;;;7.95;;
572;SDS011;271;51.114;13.780;2023-02-28T11:09:22;25.75;;;8.60;;
572;SDS011;271;51.114;13.780;2023-02-28T11:12:21;24.33;;;8.85;;
572;SDS011;271;51.114;13.780;2023-02-28T11:15:20;22.92;;;8.20;;
572;SDS011;271;51.114;13.780;2023-02-28T11:18:18;25.38;;;9.27;;
572;SDS011;271;51.114;13.780;2023-02-28T11:21:15;21.15;;;7.65;;
572;SDS011;271;51.114;13.780;2023-02-28T11:24:13;24.67;;;8.73;;
572;SDS011;271;51.114;13.780;2023-02-28T11:27:14;22.77;;;8.52;;
572;SDS011;271;51.114;13.780;2023-02-28T11:30:23;21.90;;;7.68;;
572;SDS011;271;51.114;13.780;2023-02-28T11:33:21;23.02;;;7.50;;
572;SDS011;271;51.114;13.780;2023-02-28T11:36:12;21.35;;;7.70;;
572;SDS011;271;51.114;13.780;2023-02-28T11:39:08;22.83;;;7.80;;
572;SDS011;271;51.114;13.780;2023-02-28T11:42:19;22.15;;;8.88;;
572;SDS011;271;51.114;13.780;2023-02-28T11:45:24;22.35;;;8.27;;
572;SDS011;271;51.114;13.780;2023-02-28T11:48:31;23.48;;;8.13;;
572;SDS011;271;51.114;13.780;2023-02-28T11:51:28;26.35;;;8.50;;
572;SDS011;271;51.114;13.780;2023-02-28T11:54:33;21.65;;;8.38;;
572;SDS011;271;51.114;13.780;2023-02-28T12:00:40;22.52;;;8.18;;
572;SDS011;271;51.114;13.780;2023-02-28T12:03:43;21.38;;;8.88;;
572;SDS011;271;51.114;13.780;2023-02-28T12:06:36;21.08;;;7.97;;
572;SDS011;271;51.114;13.780;2023-02-28T12:09:34;21.02;;;7.68;;
572;SDS011;271;51.114;13.780;2023-02-28T12:12:34;22.27;;;7.70;;
572;SDS011;271;51.114;13.780;2023-02-28T12:15:46;22.92;;;8.82;;
572;SDS011;271;51.114;13.780;2023-02-28T12:18:50;22.13;;;8.80;;
572;SDS011;271;51.114;13.780;2023-02-28T12:21:56;24.00;;;8.75;;
572;SDS011;271;51.114;13.780;2023-02-28T12:25:10;26.63;;;9.23;;
572;SDS011;271;51.114;13.780;2023-02-28T12:28:16;22.73;;;9.10;;
572;SDS011;271;51.114;13.780;2023-02-28T12:31:17;23.55;;;8.65;;
572;SDS011;271;51.114;13.780;2023-02-28T12:34:09;23.80;;;9.13;;
572;SDS011;271;51.114;13.780;2023-02-28T12:37:06;21.85;;;8.48;;
572;SDS011;271;51.114;13.780;2023-02-28T12:40:00;24.20;;;8.52;;
572;SDS011;271;51.114;13.780;2023-02-28T12:42:52;22.80;;;8.30;;
572;SDS011;271;51.114;13.780;2023-02-28T12:45:44;22.08;;;8.55;;
572;SDS011;271;51.114;13.780;2023-02-28T12:48:37;22.33;;;8.80;;
572;SDS011;271;51.114;13.780;2023-02-28T12:51:28;25.92;;;9.20;;
572;SDS011;271;51.114;13.780;2023-02-28T12:54:21;23.20;;;9.68;;
572;SDS011;271;51.114;13.780;2023-02-28T12:57:12;21.92;;;9.10;;
572;SDS011;271;51.114;13.780;2023-02-28T13:00:09;24.23;;;8.82;;
572;SDS011;271;51.114;13.780;2023-02-28T13:03:13;26.65;;;9.18;;
572;SDS011;271;51.114;13.780;2023-02-28T13:06:30;22.77;;;9.50;;
572;SDS011;271;51.114;13.780;2023-02-28T13:09:32;24.42;;;9.45;;
572;SDS011;271;51.114;13.780;2023-02-28T13:12:20;24.58;;;9.60;;
572;SDS011;271;51.114;13.780;2023-02-28T13:15:16;25.88;;;9.68;;
572;SDS011;271;51.114;13.780;2023-02-28T13:18:20;22.50;;;8.73;;
572;SDS011;271;51.114;13.780;2023-02-28T13:21:22;24.00;;;10.15;;
572;SDS011;271;51.114;13.780;2023-02-28T13:24:11;23.75;;;10.00;;
572;SDS011;271;51.114;13.780;2023-02-28T13:27:32;24.00;;;8.73;;
572;SDS011;271;51.114;13.780;2023-02-28T13:34:05;26.65;;;10.07;;
572;SDS011;271;51.114;13.780;2023-02-28T13:40:32;24.13;;;9.52;;
572;SDS011;271;51.114;13.780;2023-02-28T13:43:23;22.77;;;10.40;;
572;SDS011;271;51.114;13.780;2023-02-28T13:50:14;25.67;;;10.90;;
572;SDS011;271;51.114;13.780;2023-02-28T13:53:25;23.25;;;9.30;;
572;SDS011;271;51.114;13.780;2023-02-28T13:56:32;25.00;;;10.23;;
572;SDS011;271;51.114;13.780;2023-02-28T13:59:30;27.02;;;10.85;;
572;SDS011;271;51.114;13.780;2023-02-28T14:02:31;25.52;;;10.15;;
572;SDS011;271;51.114;13.780;2023-02-28T14:05:32;24.00;;;10.05;;
572;SDS011;271;51.114;13.780;2023-02-28T14:08:21;24.65;;;10.63;;
572;SDS011;271;51.114;13.780;2023-02-28T14:11:15;26.95;;;10.50;;
572;SDS011;271;51.114;13.780;2023-02-28T14:17:34;24.08;;;10.63;;
572;SDS011;271;51.114;13.780;2023-02-28T14:20:25;26.75;;;10.90;;
572;SDS011;271;51.114;13.780;2023-02-28T14:23:18;26.98;;;11.00;;
572;SDS011;271;51.114;13.780;2023-02-28T14:26:26;26.63;;;10.88;;
572;SDS011;271;51.114;13.780;2023-02-28T14:29:30;28.42;;;11.25;;
572;SDS011;271;51.114;13.780;2023-02-28T14:32:31;25.88;;;10.73;;
572;SDS011;271;51.114;13.780;2023-02-28T14:35:29;23.75;;;10.05;;
572;SDS011;271;51.114;13.780;2023-02-28T14:38:28;24.13;;;10.15;;
572;SDS011;271;51.114;13.780;2023-02-28T14:41:20;25.45;;;10.18;;
572;SDS011;271;51.114;13.780;2023-02-28T14:44:14;26.30;;;11.00;;
572;SDS011;271;51.114;13.780;2023-02-28T14:47:04;25.70;;;10.70;;
572;SDS011;271;51.114;13.780;2023-02-28T14:50:00;25.85;;;10.23;;
572;SDS011;271;51.114;13.780;2023-02-28T14:52:53;23.98;;;10.13;;
572;SDS011;271;51.114;13.780;2023-02-28T14:55:43;22.55;;;9.80;;
572;SDS011;271;51.114;13.780;2023-02-28T14:58:33;29.40;;;10.85;;
572;SDS011;271;51.114;13.780;2023-02-28T15:01:22;28.70;;;9.40;;
572;SDS011;271;51.114;13.780;2023-02-28T15:04:24;25.90;;;11.13;;
572;SDS011;271;51.114;13.780;2023-02-28T15:07:14;24.90;;;9.65;;
572;SDS011;271;51.114;13.780;2023-02-28T15:10:08;22.48;;;9.40;;
572;SDS011;271;51.114;13.780;2023-02-28T15:13:05;24.40;;;9.90;;
572;SDS011;271;51.114;13.780;2023-02-28T15:15:55;27.55;;;10.43;;
572;SDS011;271;51.114;13.780;2023-02-28T15:18:46;23.80;;;10.15;;
572;SDS011;271;51.114;13.780;2023-02-28T15:21:37;26.35;;;10.93;;
572;SDS011;271;51.114;13.780;2023-02-28T15:24:35;27.02;;;11.05;;
572;SDS011;271;51.114;13.780;2023-02-28T15:27:31;26.90;;;10.75;;
572;SDS011;271;51.114;13.780;2023-02-28T15:33:17;23.13;;;9.68;;
572;SDS011;271;51.114;13.780;2023-02-28T15:36:12;29.05;;;10.00;;
572;SDS011;271;51.114;13.780;2023-02-28T15:39:03;24.13;;;9.88;;
572;SDS011;271;51.114;13.780;2023-02-28T15:42:11;24.08;;;10.27;;
572;SDS011;271;51.114;13.780;2023-02-28T15:45:01;25.45;;;10.45;;
572;SDS011;271;51.114;13.780;2023-02-28T15:47:49;24.52;;;10.27;;
572;SDS011;271;51.114;13.780;2023-02-28T15:50:38;24.08;;;10.38;;
572;SDS011;271;51.114;13.780;2023-02-28T15:53:27;24.92;;;10.07;;
572;SDS011;271;51.114;13.780;2023-02-28T15:56:20;27.23;;;10.13;;
572;SDS011;271;51.114;13.780;2023-02-28T15:59:13;25.65;;;10.98;;
572;SDS011;271;51.114;13.780;2023-02-28T16:02:16;23.70;;;9.88;;
572;SDS011;271;51.114;13.780;2023-02-28T16:05:18;25.27;;;10.52;;
572;SDS011;271;51.114;13.780;2023-02-28T16:08:14;23.80;;;9.25;;
572;SDS011;271;51.114;13.780;2023-02-28T16:11:02;25.88;;;11.20;;
572;SDS011;271;51.114;13.780;2023-02-28T16:13:49;24.77;;;9.77;;
572;SDS011;271;51.114;13.780;2023-02-28T16:16:41;26.65;;;9.27;;
572;SDS011;271;51.114;13.780;2023-02-28T16:19:32;25.77;;;9.23;;
572;SDS011;271;51.114;13.780;2023-02-28T16:22:20;25.30;;;9.60;;
572;SDS011;271;51.114;13.780;2023-02-28T16:25:10;26.77;;;9.07;;
572;SDS011;271;51.114;13.780;2023-02-28T16:27:59;25.17;;;10.23;;
572;SDS011;271;51.114;13.780;2023-02-28T16:30:47;27.38;;;10.10;;
572;SDS011;271;51.114;13.780;2023-02-28T16:33:37;24.90;;;10.70;;
572;SDS011;271;51.114;13.780;2023-02-28T16:36:26;24.23;;;9.35;;
572;SDS011;271;51.114;13.780;2023-02-28T16:39:16;26.33;;;10.30;;
572;SDS011;271;51.114;13.780;2023-02-28T16:42:07;27.85;;;10.90;;
572;SDS011;271;51.114;13.780;2023-02-28T16:45:00;24.63;;;10.40;;
572;SDS011;271;51.114;13.780;2023-02-28T16:47:48;23.63;;;9.38;;
572;SDS011;271;51.114;13.780;2023-02-28T16:50:36;25.33;;;10.30;;
572;SDS011;271;51.114;13.780;2023-02-28T16:53:26;24.92;;;10.27;;
572;SDS011;271;51.114;13.780;2023-02-28T16:56:14;24.70;;;9.25;;
572;SDS011;271;51.114;13.780;2023-02-28T16:59:04;26.50;;;9.30;;
572;SDS011;271;51.114;13.780;2023-02-28T17:01:51;24.55;;;9.77;;
572;SDS011;271;51.114;13.780;2023-02-28T17:04:39;25.85;;;9.80;;
572;SDS011;271;51.114;13.780;2023-02-28T17:07:28;24.60;;;10.23;;
572;SDS011;271;51.114;13.780;2023-02-28T17:10:18;23.02;;;8.95;;
572;SDS011;271;51.114;13.780;2023-02-28T17:13:08;25.58;;;9.38;;
572;SDS011;271;51.114;13.780;2023-02-28T17:15:56;27.88;;;10.52;;
572;SDS011;271;51.114;13.780;2023-02-28T17:18:43;24.45;;;9.57;;
572;SDS011;271;51.114;13.780;2023-02-28T17:21:31;23.88;;;9.18;;
572;SDS011;271;51.114;13.780;2023-02-28T17:24:20;23.17;;;8.52;;
572;SDS011;271;51.114;13.780;2023-02-28T17:27:10;24.85;;;9.48;;
572;SDS011;271;51.114;13.780;2023-02-28T17:29:59;24.90;;;8.75;;
572;SDS011;271;51.114;13.780;2023-02-28T17:32:48;25.13;;;9.40;;
572;SDS011;271;51.114;13.780;2023-02-28T17:35:36;25.55;;;9.80;;
572;SDS011;271;51.114;13.780;2023-02-28T17:38:24;26.23;;;9.25;;
572;SDS011;271;51.114;13.780;2023-02-28T17:41:12;24.42;;;8.38;;
572;SDS011;271;51.114;13.780;2023-02-28T17:44:01;25.83;;;10.98;;
572;SDS011;271;51.114;13.780;2023-02-28T17:46:49;26.73;;;11.88;;
572;SDS011;271;51.114;13.780;2023-02-28T17:49:37;26.50;;;9.23;;
572;SDS011;271;51.114;13.780;2023-02-28T17:52:24;24.98;;;9.85;;
572;SDS011;271;51.114;13.780;2023-02-28T17:55:12;50.65;;;37.08;;
572;SDS011;271;51.114;13.780;2023-02-28T17:58:00;45.95;;;30.52;;
572;SDS011;271;51.114;13.780;2023-02-28T18:00:50;28.83;;;11.88;;
572;SDS011;271;51.114;13.780;2023-02-28T18:03:40;24.05;;;10.00;;
572;SDS011;271;51.114;13.780;2023-02-28T18:06:28;22.70;;;8.55;;
572;SDS011;271;51.114;13.780;2023-02-28T18:09:21;23.95;;;8.85;;
572;SDS011;271;51.114;13.780;2023-02-28T18:12:09;26.85;;;13.10;;
572;SDS011;271;51.114;13.780;2023-02-28T18:14:57;31.30;;;16.23;;
572;SDS011;271;51.114;13.780;2023-02-28T18:17:46;24.92;;;12.50;;
572;SDS011;271;51.114;13.780;2023-02-28T18:20:35;27.50;;;13.60;;